createdAt,value
2022-08-02T00:01:31.571Z,71.17
2022-08-02T00:04:03.316Z,71.38
2022-08-02T00:06:35.089Z,71.42
2022-08-02T00:09:07.347Z,71.11
2022-08-02T00:11:39.176Z,71.14
2022-08-02T00:14:15.523Z,71.57
2022-08-02T00:16:47.763Z,71.89
2022-08-02T00:19:19.789Z,71.87
2022-08-02T00:21:51.477Z,72.01
2022-08-02T00:24:30.905Z,72.19
2022-08-02T00:27:03.871Z,71.99
2022-08-02T00:29:42.592Z,72.30
2022-08-02T00:32:24.698Z,72.31
2022-08-02T00:34:56.391Z,72.02
2022-08-02T00:37:28.081Z,72.34
2022-08-02T00:40:02.161Z,72.31
2022-08-02T00:42:34.184Z,72.35
2022-08-02T00:45:07.821Z,72.07
2022-08-02T00:47:39.605Z,71.69
2022-08-02T00:50:12.631Z,71.99
2022-08-02T00:52:44.205Z,72.10
2022-08-02T00:55:17.369Z,72.12
2022-08-02T00:57:50.781Z,71.88
2022-08-02T01:00:23.185Z,72.43
2022-08-02T01:03:01.729Z,72.12
2022-08-02T01:05:55.755Z,72.15
2022-08-02T01:08:29.610Z,72.28
2022-08-02T01:11:03.747Z,72.29
2022-08-02T01:13:37.152Z,72.47
2022-08-02T01:16:16.230Z,72.83
2022-08-02T01:18:53.472Z,72.97
2022-08-02T01:21:39.907Z,73.12
2022-08-02T01:24:32.170Z,72.51
2022-08-02T01:27:20.399Z,73.02
2022-08-02T01:29:59.983Z,73.60
2022-08-02T01:32:36.413Z,73.39
2022-08-02T01:35:14.933Z,73.25
2022-08-02T01:37:54.504Z,73.11
2022-08-02T01:40:30.317Z,73.32
2022-08-02T01:43:03.049Z,72.90
2022-08-02T01:45:40.634Z,73.22
2022-08-02T01:48:17.614Z,73.99
2022-08-02T01:50:50.348Z,73.55
2022-08-02T01:53:25.395Z,73.94
2022-08-02T01:56:00.464Z,74.03
2022-08-02T01:58:36.117Z,74.28
2022-08-02T02:01:10.706Z,74.65
2022-08-02T02:03:49.690Z,74.56
2022-08-02T02:06:24.180Z,74.97
2022-08-02T02:08:57.551Z,74.80
2022-08-02T02:12:11.661Z,74.84
2022-08-02T02:14:25.347Z,74.90
2022-08-02T02:16:59.350Z,74.74
2022-08-02T02:19:34.399Z,74.98
2022-08-02T02:22:06.847Z,75.69
2022-08-02T02:24:38.782Z,75.70
2022-08-02T02:27:13.329Z,75.99
2022-08-02T02:29:51.679Z,76.80
2022-08-02T02:32:26.521Z,77.73
2022-08-02T02:35:00.707Z,78.26
2022-08-02T02:37:34.829Z,78.50
2022-08-02T02:40:09.286Z,78.29
2022-08-02T02:42:42.705Z,78.86
2022-08-02T02:45:23.216Z,78.67
2022-08-02T02:47:56.500Z,79.08
2022-08-02T02:50:29.669Z,79.50
2022-08-02T02:53:02.629Z,80.20
2022-08-02T02:55:34.888Z,80.43
2022-08-02T02:58:08.724Z,80.68
2022-08-02T03:00:58.422Z,80.65
2022-08-02T03:03:32.004Z,79.85
2022-08-02T03:06:04.125Z,80.42
2022-08-02T03:08:47.157Z,80.86
2022-08-02T03:11:19.745Z,80.99
2022-08-02T03:13:51.755Z,81.43
2022-08-02T03:16:23.554Z,80.97
2022-08-02T03:18:55.669Z,81.40
2022-08-02T03:21:27.600Z,81.15
2022-08-02T03:24:06.161Z,81.12
2022-08-02T03:26:38.328Z,81.37
2022-08-02T03:29:11.126Z,81.20
2022-08-02T03:31:46.712Z,80.89
2022-08-02T03:34:18.566Z,80.78
2022-08-02T03:36:52.571Z,81.19
2022-08-02T03:39:26.694Z,80.82
2022-08-02T03:41:59.114Z,81.92
2022-08-02T03:44:31.440Z,82.70
2022-08-02T03:47:03.204Z,83.01
2022-08-02T03:49:35.993Z,83.11
2022-08-02T03:52:09.936Z,83.48
2022-08-02T03:54:45.680Z,83.81
2022-08-02T03:57:19.219Z,83.45
2022-08-02T03:59:50.870Z,83.31
2022-08-02T04:02:22.619Z,83.54
2022-08-02T04:04:54.409Z,83.92
2022-08-02T04:08:32.822Z,83.57
2022-08-02T04:10:18.384Z,83.57
2022-08-02T04:12:50.129Z,83.26
2022-08-02T04:15:22.143Z,84.22
2022-08-02T04:17:57.621Z,83.57
2022-08-02T04:20:32.933Z,83.01
2022-08-02T04:23:09.141Z,83.27
2022-08-02T04:25:42.573Z,83.67
2022-08-02T04:28:17.333Z,84.08
2022-08-02T04:30:52.774Z,84.21
2022-08-02T04:33:25.967Z,84.28
2022-08-02T04:35:59.774Z,84.08
2022-08-02T04:38:31.959Z,83.42
2022-08-02T04:41:03.735Z,83.47
2022-08-02T04:43:35.388Z,83.90
2022-08-02T04:46:07.182Z,83.92
2022-08-02T04:48:38.897Z,84.35
2022-08-02T04:51:10.662Z,83.91
2022-08-02T04:53:42.757Z,83.33
2022-08-02T04:56:14.834Z,83.29
2022-08-02T04:58:46.490Z,83.17
2022-08-02T05:01:18.112Z,83.02
2022-08-02T05:03:49.882Z,83.00
2022-08-02T05:06:21.717Z,82.64
2022-08-02T05:08:53.906Z,82.32
2022-08-02T05:11:35.997Z,82.27
2022-08-02T05:14:09.314Z,81.73
2022-08-02T05:16:40.884Z,81.41
2022-08-02T05:19:12.652Z,81.40
2022-08-02T05:21:44.339Z,81.54
2022-08-02T05:24:16.498Z,81.52
2022-08-02T05:26:48.454Z,81.68
2022-08-02T05:29:20.488Z,81.85
2022-08-02T05:31:52.230Z,81.65
2022-08-02T05:34:24.018Z,82.04
2022-08-02T05:36:55.718Z,81.59
2022-08-02T05:39:30.838Z,81.11
2022-08-02T05:42:03.819Z,80.63
2022-08-02T05:44:35.492Z,79.68
2022-08-02T05:47:07.398Z,78.56
2022-08-02T05:49:39.665Z,79.18
2022-08-02T05:52:16.972Z,77.40
2022-08-02T05:54:55.735Z,76.36
2022-08-02T05:57:43.473Z,75.74
2022-08-02T06:00:17.449Z,74.60
2022-08-02T06:03:03.441Z,74.46
2022-08-02T06:05:40.953Z,74.43
2022-08-02T06:08:14.285Z,72.96
2022-08-02T06:10:47.457Z,71.58
2022-08-02T06:13:19.699Z,71.61
2022-08-02T06:15:55.878Z,75.37
2022-08-02T06:18:29.785Z,73.14
2022-08-02T06:22:34.022Z,70.78
2022-08-02T06:24:00.031Z,68.25
2022-08-02T06:26:32.911Z,68.11
2022-08-02T06:29:08.781Z,65.80
2022-08-02T06:31:45.141Z,63.03
2022-08-02T06:34:18.088Z,64.84
2022-08-02T06:37:03.645Z,61.72
2022-08-02T06:39:44.615Z,62.37
2022-08-02T06:42:27.050Z,65.68
2022-08-02T06:45:00.070Z,63.33
2022-08-02T06:47:31.802Z,60.46
2022-08-02T06:50:04.247Z,59.83
2022-08-02T06:52:36.310Z,59.82
2022-08-02T06:55:10.697Z,60.19
2022-08-02T06:57:42.748Z,59.62
2022-08-02T07:00:16.044Z,59.70
2022-08-02T07:02:50.137Z,60.63
2022-08-02T07:05:21.907Z,60.19
2022-08-02T07:07:53.697Z,59.34
2022-08-02T07:10:25.484Z,57.66
2022-08-02T07:12:59.751Z,56.93
2022-08-02T07:15:31.829Z,57.93
2022-08-02T07:18:04.533Z,58.50
2022-08-02T07:20:36.468Z,58.92
2022-08-02T07:23:08.334Z,59.17
2022-08-02T07:26:02.977Z,59.73
2022-08-02T07:28:33.547Z,60.11
2022-08-02T07:31:08.684Z,59.41
2022-08-02T07:33:43.358Z,58.77
2022-08-02T07:36:22.824Z,58.52
2022-08-02T07:38:54.949Z,58.93
2022-08-02T07:41:26.764Z,58.94
2022-08-02T07:43:58.368Z,58.36
2022-08-02T07:46:30.137Z,58.09
2022-08-02T07:49:01.866Z,57.88
2022-08-02T07:51:33.685Z,57.44
2022-08-02T07:54:05.819Z,57.29
2022-08-02T07:56:37.814Z,57.20
2022-08-02T07:59:10.345Z,56.73
2022-08-02T08:01:45.968Z,56.81
2022-08-02T08:04:18.443Z,56.32
2022-08-02T08:06:53.442Z,56.88
2022-08-02T08:09:25.356Z,56.94
2022-08-02T08:11:57.077Z,56.54
2022-08-02T08:14:28.735Z,64.38
2022-08-02T08:17:00.389Z,59.83
2022-08-02T08:19:50.408Z,56.96
2022-08-02T08:22:24.226Z,55.21
2022-08-02T08:24:56.125Z,55.21
2022-08-02T08:27:28.707Z,55.02
2022-08-02T08:29:59.374Z,55.55
2022-08-02T08:32:31.995Z,54.67
2022-08-02T08:35:03.641Z,55.01
2022-08-02T08:37:37.987Z,55.24
2022-08-02T08:40:11.973Z,55.11
2022-08-02T08:42:43.717Z,54.67
2022-08-02T08:45:16.497Z,54.88
2022-08-02T08:47:53.225Z,54.23
2022-08-02T08:50:28.090Z,53.69
2022-08-02T08:53:05.672Z,53.47
2022-08-02T08:55:38.478Z,53.71
2022-08-02T08:58:11.082Z,53.48
2022-08-02T09:00:42.969Z,52.97
2022-08-02T09:03:14.894Z,52.94
2022-08-02T09:05:47.951Z,52.67
2022-08-02T09:08:20.075Z,54.01
2022-08-02T09:10:51.815Z,54.44
2022-08-02T09:13:38.419Z,53.30
2022-08-02T09:16:18.005Z,52.67
2022-08-02T09:18:52.082Z,52.43
2022-08-02T09:21:24.152Z,53.21
2022-08-02T09:23:57.340Z,51.80
2022-08-02T09:26:29.705Z,52.59
2022-08-02T09:29:06.157Z,51.65
2022-08-02T09:31:41.651Z,51.33
2022-08-02T09:34:23.518Z,51.36
2022-08-02T09:36:55.416Z,50.93
2022-08-02T09:39:47.686Z,50.38
2022-08-02T09:42:20.036Z,50.32
2022-08-02T09:44:58.835Z,50.76
2022-08-02T09:47:31.607Z,50.00
2022-08-02T09:50:14.699Z,48.74
2022-08-02T09:52:46.827Z,48.55
2022-08-02T09:55:18.665Z,48.56
2022-08-02T09:57:51.710Z,48.52
2022-08-02T10:00:43.386Z,48.56
2022-08-02T10:03:22.035Z,49.03
2022-08-02T10:06:03.207Z,47.41
2022-08-02T10:08:35.453Z,46.83
2022-08-02T10:11:07.105Z,46.38
2022-08-02T10:13:39.028Z,45.88
2022-08-02T10:16:11.358Z,46.19
2022-08-02T10:18:44.166Z,46.07
2022-08-02T10:21:20.939Z,46.35
2022-08-02T10:23:55.089Z,45.81
2022-08-02T10:26:27.525Z,45.91
2022-08-02T10:28:59.746Z,45.82
2022-08-02T10:31:39.214Z,45.81
2022-08-02T10:34:14.559Z,45.75
2022-08-02T10:36:48.246Z,45.72
2022-08-02T10:39:20.181Z,45.48
2022-08-02T10:41:53.510Z,45.54
2022-08-02T10:44:29.424Z,44.60
2022-08-02T10:47:23.396Z,44.83
2022-08-02T10:49:56.753Z,44.53
2022-08-02T10:52:29.813Z,43.88
2022-08-02T10:55:04.618Z,43.86
2022-08-02T10:57:48.794Z,44.02
2022-08-02T11:00:30.040Z,44.18
2022-08-02T11:03:01.852Z,44.01
2022-08-02T11:05:42.971Z,43.93
2022-08-02T11:08:25.149Z,43.23
2022-08-02T11:11:01.315Z,43.09
2022-08-02T11:13:52.989Z,42.97
2022-08-02T11:16:25.818Z,42.32
2022-08-02T11:19:07.250Z,42.13
2022-08-02T11:21:39.421Z,42.07
2022-08-02T11:24:31.878Z,41.43
2022-08-02T11:27:05.698Z,41.23
2022-08-02T11:29:40.288Z,41.38
2022-08-02T11:32:19.914Z,41.64
2022-08-02T11:34:54.300Z,41.17
2022-08-02T11:37:34.755Z,40.71
2022-08-02T11:40:19.018Z,40.32
2022-08-02T11:42:53.673Z,41.25
2022-08-02T11:45:30.079Z,41.48
2022-08-02T11:48:02.086Z,41.03
2022-08-02T11:50:34.083Z,40.21
2022-08-02T11:53:15.668Z,40.36
2022-08-02T11:55:47.362Z,40.16
2022-08-02T11:58:19.152Z,40.16
2022-08-02T12:00:50.982Z,39.89
2022-08-02T12:03:23.161Z,39.93
2022-08-02T12:06:05.042Z,39.90
2022-08-02T12:08:40.003Z,39.87
2022-08-02T12:11:11.784Z,40.04
2022-08-02T12:13:56.550Z,39.55
2022-08-02T12:16:54.665Z,39.23
2022-08-02T12:19:27.878Z,38.65
2022-08-02T12:22:18.908Z,38.09
2022-08-02T12:24:52.729Z,38.07
2022-08-02T12:27:41.239Z,38.46
2022-08-02T12:30:18.661Z,38.92
2022-08-02T12:33:12.870Z,38.95
2022-08-02T12:35:45.119Z,39.18
2022-08-02T12:38:17.094Z,38.91
2022-08-02T12:40:51.382Z,39.27
2022-08-02T12:43:25.125Z,40.22
2022-08-02T12:45:58.514Z,40.84
2022-08-02T12:48:45.105Z,40.62
2022-08-02T12:51:56.548Z,39.78
2022-08-02T12:54:30.635Z,39.09
2022-08-02T12:57:15.757Z,39.17
2022-08-02T12:59:53.420Z,39.44
2022-08-02T13:02:25.219Z,39.39
2022-08-02T13:05:00.008Z,39.41
2022-08-02T13:07:31.777Z,39.67
2022-08-02T13:10:03.843Z,39.46
2022-08-02T13:12:37.509Z,39.13
2022-08-02T13:15:12.522Z,39.05
2022-08-02T13:18:03.974Z,38.88
2022-08-02T13:20:34.195Z,38.81
2022-08-02T13:23:06.355Z,38.73
2022-08-02T13:25:38.639Z,38.80
2022-08-02T13:28:10.830Z,38.55
2022-08-02T13:30:42.603Z,38.55
2022-08-02T13:33:14.506Z,38.61
2022-08-02T13:35:47.372Z,38.64
2022-08-02T13:38:24.810Z,39.30
2022-08-02T13:41:13.725Z,40.03
2022-08-02T13:43:54.030Z,39.73
2022-08-02T13:46:28.650Z,39.89
2022-08-02T13:49:01.958Z,40.08
2022-08-02T13:51:32.236Z,40.08
2022-08-02T13:54:09.422Z,40.26
2022-08-02T13:56:44.936Z,40.25
2022-08-02T13:59:54.304Z,40.22
2022-08-02T14:02:11.613Z,39.54
2022-08-02T14:04:45.503Z,40.05
2022-08-02T14:07:17.160Z,38.65
2022-08-02T14:09:51.415Z,37.74
2022-08-02T14:12:25.524Z,37.41
2022-08-02T14:14:57.631Z,37.62
2022-08-02T14:17:29.962Z,37.69
2022-08-02T14:20:01.798Z,37.10
2022-08-02T14:22:33.666Z,36.88
2022-08-02T14:25:09.397Z,36.76
2022-08-02T14:27:41.480Z,37.02
2022-08-02T14:30:14.977Z,36.53
2022-08-02T14:32:47.031Z,36.22
2022-08-02T14:35:19.269Z,36.18
2022-08-02T14:37:51.317Z,36.21
2022-08-02T14:40:30.792Z,36.85
2022-08-02T14:43:04.540Z,37.66
2022-08-02T14:45:41.229Z,38.42
2022-08-02T14:48:13.965Z,38.57
2022-08-02T14:50:44.004Z,38.98
2022-08-02T14:53:15.713Z,38.85
2022-08-02T14:55:47.545Z,38.84
2022-08-02T14:58:19.561Z,39.22
2022-08-02T15:00:51.492Z,39.09
2022-08-02T15:03:24.477Z,39.12
2022-08-02T15:06:06.177Z,39.20
2022-08-02T15:08:39.679Z,38.33
2022-08-02T15:11:11.867Z,37.58
2022-08-02T15:13:43.765Z,36.59
2022-08-02T15:16:14.334Z,35.99
2022-08-02T15:18:46.384Z,35.16
2022-08-02T15:21:40.650Z,34.32
2022-08-02T15:24:10.691Z,34.24
2022-08-02T15:26:42.438Z,33.98
2022-08-02T15:29:14.594Z,34.11
2022-08-02T15:31:44.895Z,33.49
2022-08-02T15:34:18.709Z,32.88
2022-08-02T15:36:50.819Z,33.62
2022-08-02T15:39:22.780Z,33.54
2022-08-02T15:41:54.587Z,33.08
2022-08-02T15:44:26.518Z,32.87
2022-08-02T15:46:58.595Z,32.67
2022-08-02T15:49:30.980Z,32.68
2022-08-02T15:52:02.978Z,32.92
2022-08-02T15:54:35.147Z,33.35
2022-08-02T15:57:07.430Z,34.99
2022-08-02T15:59:37.593Z,35.50
2022-08-02T16:02:09.547Z,35.35
2022-08-02T16:04:41.496Z,36.01
2022-08-02T16:07:13.372Z,36.88
2022-08-02T16:09:45.097Z,36.81
2022-08-02T16:12:17.205Z,37.40
2022-08-02T16:14:48.523Z,37.47
2022-08-02T16:17:48.848Z,37.66
2022-08-02T16:20:14.014Z,38.24
2022-08-02T16:22:45.851Z,38.00
2022-08-02T16:25:17.714Z,37.65
2022-08-02T16:27:57.805Z,38.88
2022-08-02T16:30:39.936Z,38.59
2022-08-02T16:33:10.136Z,36.71
2022-08-02T16:35:47.416Z,35.34
2022-08-02T16:38:19.678Z,34.89
2022-08-02T16:40:51.896Z,33.74
2022-08-02T16:43:22.560Z,33.81
2022-08-02T16:45:54.812Z,33.25
2022-08-02T16:48:27.168Z,32.56
2022-08-02T16:51:00.626Z,32.30
2022-08-02T16:53:36.767Z,32.41
2022-08-02T16:56:09.102Z,32.35
2022-08-02T16:58:41.025Z,32.72
2022-08-02T17:01:17.365Z,33.40
2022-08-02T17:03:57.966Z,34.44
2022-08-02T17:06:29.830Z,35.67
2022-08-02T17:09:01.590Z,35.75
2022-08-02T17:11:33.418Z,36.56
2022-08-02T17:14:05.178Z,37.00
2022-08-02T17:16:37.049Z,37.39
2022-08-02T17:19:09.157Z,40.74
2022-08-02T17:21:41.043Z,40.16
2022-08-02T17:24:13.441Z,39.39
2022-08-02T17:26:43.557Z,40.23
2022-08-02T17:29:17.977Z,40.00
2022-08-02T17:32:12.856Z,40.77
2022-08-02T17:34:56.462Z,40.30
2022-08-02T17:37:32.782Z,40.56
2022-08-02T17:40:08.443Z,41.24
2022-08-02T17:42:42.102Z,41.82
2022-08-02T17:45:16.982Z,41.34
2022-08-02T17:48:04.841Z,41.73
2022-08-02T17:50:38.231Z,42.22
2022-08-02T17:53:10.065Z,43.09
2022-08-02T17:55:44.154Z,42.15
2022-08-02T17:58:23.366Z,42.52
2022-08-02T18:01:23.533Z,42.56
2022-08-02T18:03:56.781Z,43.58
2022-08-02T18:06:30.514Z,43.76
2022-08-02T18:09:02.722Z,45.02
2022-08-02T18:11:52.443Z,44.90
2022-08-02T18:14:26.662Z,45.54
2022-08-02T18:16:58.934Z,46.00
2022-08-02T18:19:42.563Z,45.45
2022-08-02T18:22:25.014Z,44.34
2022-08-02T18:24:58.715Z,48.42
2022-08-02T18:27:30.821Z,46.81
2022-08-02T18:30:04.727Z,48.02
2022-08-02T18:33:55.855Z,46.76
2022-08-02T18:35:29.397Z,47.97
2022-08-02T18:38:04.158Z,48.92
2022-08-02T18:40:43.887Z,51.32
2022-08-02T18:43:25.594Z,48.11
2022-08-02T18:46:07.245Z,49.37
2022-08-02T18:48:48.068Z,50.32
2022-08-02T18:51:20.603Z,50.89
2022-08-02T18:53:53.435Z,51.68
2022-08-02T18:56:27.316Z,51.66
2022-08-02T18:59:04.916Z,53.01
2022-08-02T19:01:46.775Z,52.43
2022-08-02T19:07:13.418Z,53.00
2022-08-02T19:09:46.069Z,52.26
2022-08-02T19:12:28.005Z,51.71
2022-08-02T19:15:00.363Z,50.29
2022-08-02T19:17:54.966Z,53.66
2022-08-02T19:20:26.569Z,53.41
2022-08-02T19:23:02.978Z,53.63
2022-08-02T19:25:35.257Z,50.32
2022-08-02T19:28:06.562Z,51.72
2022-08-02T19:30:42.791Z,53.15
2022-08-02T19:36:08.060Z,53.57
2022-08-02T19:38:44.035Z,52.42
2022-08-02T19:41:16.662Z,52.52
2022-08-02T19:44:25.924Z,51.35
2022-08-02T19:46:41.650Z,51.71
2022-08-02T19:49:19.834Z,53.53
2022-08-02T19:51:55.604Z,53.58
2022-08-02T19:54:35.754Z,54.03
2022-08-02T19:57:21.304Z,53.72
2022-08-02T19:59:54.669Z,52.86
2022-08-02T20:02:26.663Z,53.07
2022-08-02T20:04:57.351Z,53.75
2022-08-02T20:07:55.229Z,52.37
2022-08-02T20:10:24.725Z,53.78
2022-08-02T20:12:56.799Z,51.08
2022-08-02T20:15:51.877Z,53.02
2022-08-02T20:18:26.810Z,53.74
2022-08-02T20:21:01.043Z,51.68
2022-08-02T20:23:34.411Z,51.26
2022-08-02T20:26:08.995Z,51.56
2022-08-02T20:28:41.404Z,51.71
2022-08-02T20:31:13.437Z,51.63
2022-08-02T20:33:55.451Z,51.91
2022-08-02T20:36:27.248Z,51.96
2022-08-02T20:38:58.978Z,51.91
2022-08-02T20:41:36.958Z,52.39
2022-08-02T20:44:30.922Z,52.23
2022-08-02T20:47:03.957Z,52.31
2022-08-02T20:49:56.101Z,52.43
2022-08-02T20:52:28.877Z,52.64
2022-08-02T20:55:00.747Z,53.15
2022-08-02T20:57:48.624Z,52.72
2022-08-02T21:00:21.665Z,52.97
2022-08-02T21:02:55.316Z,52.88
2022-08-02T21:05:43.657Z,52.83
2022-08-02T21:08:21.471Z,52.38
2022-08-02T21:10:55.533Z,52.42
2022-08-02T21:13:28.737Z,53.18
2022-08-02T21:16:08.002Z,53.32
2022-08-02T21:18:41.394Z,53.57
2022-08-02T21:21:14.552Z,53.70
2022-08-02T21:26:39.781Z,53.91
2022-08-02T21:29:13.643Z,53.49
2022-08-02T21:31:46.434Z,53.00
2022-08-02T21:37:11.040Z,53.60
2022-08-02T21:39:49.911Z,53.80
2022-08-02T21:42:22.383Z,53.44
2022-08-02T21:44:54.472Z,53.66
2022-08-02T21:47:26.795Z,53.79
2022-08-02T21:50:13.278Z,53.62
2022-08-02T21:52:52.032Z,53.96
2022-08-02T21:56:00.622Z,53.96
2022-08-02T21:58:16.652Z,53.95
2022-08-02T22:00:52.836Z,54.71
2022-08-02T22:03:24.881Z,54.87
2022-08-02T22:06:01.814Z,54.93
2022-08-02T22:08:36.405Z,55.41
2022-08-02T22:11:16.929Z,55.38
2022-08-02T22:13:49.246Z,55.02
2022-08-02T22:16:22.878Z,55.12
2022-08-02T22:18:55.029Z,55.67
2022-08-02T22:21:32.386Z,55.72
2022-08-02T22:24:19.285Z,55.53
2022-08-02T22:26:51.481Z,55.71
2022-08-02T22:29:23.398Z,56.06
2022-08-02T22:31:55.778Z,56.16
2022-08-02T22:34:51.219Z,56.40
2022-08-02T22:38:14.856Z,56.35
2022-08-02T22:40:14.056Z,55.97
2022-08-02T22:42:45.891Z,56.03
2022-08-02T22:45:17.979Z,55.43
2022-08-02T22:47:51.128Z,56.41
2022-08-02T22:50:23.544Z,57.04
2022-08-02T22:52:55.550Z,56.89
2022-08-02T22:55:32.368Z,57.02
2022-08-02T22:58:04.231Z,57.08
2022-08-02T22:58:57.503Z,52.06
2022-08-02T22:58:58.611Z,51.22
2022-08-02T22:59:02.554Z,54.48
2022-08-02T22:59:03.125Z,53.31
2022-08-02T23:00:36.622Z,57.27
2022-08-02T23:03:09.123Z,57.26
2022-08-02T23:05:40.016Z,57.63
2022-08-02T23:08:12.076Z,58.13
2022-08-02T23:10:43.855Z,58.08
2022-08-02T23:13:15.557Z,58.26
2022-08-02T23:16:05.649Z,58.16
2022-08-02T23:18:55.194Z,58.67
2022-08-02T23:22:01.142Z,58.15
2022-08-02T23:24:24.402Z,58.43
2022-08-02T23:26:55.956Z,58.81
2022-08-02T23:29:28.046Z,58.22
2022-08-02T23:32:00.735Z,58.68
2022-08-02T23:34:32.681Z,58.48
2022-08-02T23:37:04.618Z,58.60
2022-08-02T23:39:38.222Z,58.39
2022-08-02T23:42:10.698Z,58.31
2022-08-02T23:44:42.688Z,59.21
2022-08-02T23:47:16.994Z,58.72
2022-08-02T23:49:49.077Z,58.73
2022-08-02T23:52:21.237Z,59.02
2022-08-02T23:54:52.925Z,59.57
2022-08-02T23:57:24.806Z,59.51
2022-08-02T23:59:56.513Z,59.58
